createdAt,value
2023-01-08T00:01:17.757Z,38.78
2023-01-08T00:03:45.764Z,37.95
2023-01-08T00:06:15.214Z,35.03
2023-01-08T00:08:42.931Z,35.75
2023-01-08T00:11:10.828Z,34.58
2023-01-08T00:13:38.294Z,38.75
2023-01-08T00:16:06.594Z,37.10
2023-01-08T00:18:34.005Z,36.92
2023-01-08T00:21:02.654Z,39.40
2023-01-08T00:23:30.125Z,39.25
2023-01-08T00:25:57.524Z,35.38
2023-01-08T00:28:25.013Z,39.00
2023-01-08T00:30:52.601Z,34.90
2023-01-08T00:33:19.976Z,42.17
2023-01-08T00:35:47.402Z,40.17
2023-01-08T00:38:14.847Z,42.10
2023-01-08T00:40:42.242Z,39.47
2023-01-08T00:43:09.647Z,37.40
2023-01-08T00:45:37.490Z,41.33
2023-01-08T00:48:04.950Z,41.30
2023-01-08T00:50:32.302Z,41.92
2023-01-08T00:52:59.746Z,42.90
2023-01-08T00:55:27.208Z,44.35
2023-01-08T00:57:54.644Z,43.00
2023-01-08T01:00:22.279Z,43.65
2023-01-08T01:02:49.695Z,43.17
2023-01-08T01:05:17.565Z,44.65
2023-01-08T01:07:45.319Z,43.15
2023-01-08T01:10:14.238Z,45.58
2023-01-08T01:12:41.944Z,43.63
2023-01-08T01:15:10.706Z,42.70
2023-01-08T01:17:41.805Z,46.95
2023-01-08T01:20:10.117Z,42.17
2023-01-08T01:22:37.478Z,43.20
2023-01-08T01:25:05.257Z,42.20
2023-01-08T01:27:33.672Z,44.95
2023-01-08T01:30:01.043Z,42.97
2023-01-08T01:32:28.416Z,42.65
2023-01-08T01:34:55.868Z,46.85
2023-01-08T01:37:23.409Z,41.03
2023-01-08T01:39:50.868Z,44.75
2023-01-08T01:42:37.671Z,43.20
2023-01-08T01:45:13.298Z,45.30
2023-01-08T01:47:41.714Z,47.83
2023-01-08T01:50:11.423Z,52.60
2023-01-08T01:52:46.627Z,51.30
2023-01-08T01:55:15.056Z,46.13
2023-01-08T01:57:46.018Z,45.10
2023-01-08T02:00:13.656Z,54.13
2023-01-08T02:02:42.087Z,48.65
2023-01-08T02:05:09.782Z,48.20
2023-01-08T02:07:42.909Z,48.95
2023-01-08T02:10:12.440Z,48.60
2023-01-08T02:12:42.895Z,49.42
2023-01-08T02:15:14.543Z,52.60
2023-01-08T02:17:46.067Z,49.05
2023-01-08T02:20:15.778Z,44.60
2023-01-08T02:23:06.254Z,48.00
2023-01-08T02:25:52.374Z,44.42
2023-01-08T02:28:20.068Z,51.13
2023-01-08T02:30:48.564Z,45.60
2023-01-08T02:33:16.142Z,48.60
2023-01-08T02:35:46.730Z,54.65
2023-01-08T02:38:15.204Z,49.53
2023-01-08T02:41:01.078Z,58.38
2023-01-08T02:43:32.484Z,57.75
2023-01-08T02:46:02.381Z,61.95
2023-01-08T02:48:40.264Z,61.55
2023-01-08T02:51:25.076Z,63.17
2023-01-08T02:53:55.333Z,63.70
2023-01-08T02:56:24.824Z,66.85
2023-01-08T02:58:54.063Z,62.28
2023-01-08T03:01:22.664Z,67.90
2023-01-08T03:03:52.328Z,71.13
2023-01-08T03:06:20.905Z,67.45
2023-01-08T03:08:49.643Z,61.85
2023-01-08T03:11:19.235Z,67.38
2023-01-08T03:13:46.851Z,65.95
2023-01-08T03:16:33.145Z,65.93
2023-01-08T03:19:03.523Z,69.05
2023-01-08T03:21:32.554Z,68.55
2023-01-08T03:24:00.829Z,69.63
2023-01-08T03:26:28.535Z,71.05
2023-01-08T03:28:57.247Z,71.00
2023-01-08T03:31:25.808Z,65.90
2023-01-08T03:33:53.410Z,64.82
2023-01-08T03:36:23.034Z,63.80
2023-01-08T03:38:57.617Z,63.97
2023-01-08T03:41:25.720Z,63.92
2023-01-08T03:43:53.063Z,64.18
2023-01-08T03:46:22.841Z,69.13
2023-01-08T03:48:50.975Z,63.80
2023-01-08T03:51:18.905Z,70.20
2023-01-08T03:53:47.337Z,68.28
2023-01-08T03:56:14.735Z,73.32
2023-01-08T03:58:42.088Z,66.05
2023-01-08T04:01:09.585Z,62.25
2023-01-08T04:03:37.072Z,67.90
2023-01-08T04:06:04.526Z,66.90
2023-01-08T04:08:31.909Z,67.80
2023-01-08T04:10:59.307Z,71.10
2023-01-08T04:13:26.698Z,68.93
2023-01-08T04:15:54.144Z,69.80
2023-01-08T04:18:21.539Z,70.28
2023-01-08T04:20:49.260Z,69.85
2023-01-08T04:23:16.805Z,68.55
2023-01-08T04:25:44.267Z,67.72
2023-01-08T04:28:11.643Z,68.55
2023-01-08T04:30:39.109Z,72.53
2023-01-08T04:33:06.674Z,83.57
2023-01-08T04:35:34.110Z,69.78
2023-01-08T04:38:01.504Z,70.35
2023-01-08T04:40:28.971Z,68.13
2023-01-08T04:42:56.428Z,66.03
2023-01-08T04:45:23.841Z,65.13
2023-01-08T04:48:00.548Z,69.82
2023-01-08T04:50:28.780Z,69.10
2023-01-08T04:52:56.125Z,71.68
2023-01-08T04:55:23.563Z,75.75
2023-01-08T04:57:50.934Z,67.25
2023-01-08T05:00:18.524Z,68.28
2023-01-08T05:02:46.048Z,64.97
2023-01-08T05:05:14.165Z,65.28
2023-01-08T05:07:41.543Z,64.15
2023-01-08T05:10:09.231Z,66.63
2023-01-08T05:12:36.636Z,68.75
2023-01-08T05:15:04.116Z,71.40
2023-01-08T05:17:31.486Z,65.90
2023-01-08T05:19:58.975Z,71.43
2023-01-08T05:22:26.345Z,66.82
2023-01-08T05:24:53.785Z,65.22
2023-01-08T05:27:21.180Z,66.70
2023-01-08T05:29:48.621Z,63.83
2023-01-08T05:32:17.482Z,69.72
2023-01-08T05:34:45.619Z,63.80
2023-01-08T05:37:13.213Z,60.25
2023-01-08T05:39:40.700Z,63.58
2023-01-08T05:42:08.057Z,64.50
2023-01-08T05:44:35.489Z,60.47
2023-01-08T05:47:03.680Z,68.47
2023-01-08T05:49:31.059Z,63.28
2023-01-08T05:51:58.681Z,65.82
2023-01-08T05:54:26.123Z,65.10
2023-01-08T05:56:53.449Z,56.17
2023-01-08T05:59:20.867Z,62.38
2023-01-08T06:01:48.258Z,59.85
2023-01-08T06:04:15.744Z,57.95
2023-01-08T06:06:43.177Z,55.47
2023-01-08T06:09:10.664Z,56.22
2023-01-08T06:11:38.089Z,56.20
2023-01-08T06:14:05.501Z,52.75
2023-01-08T06:16:33.506Z,58.13
2023-01-08T06:19:02.636Z,57.15
2023-01-08T06:21:29.967Z,52.72
2023-01-08T06:23:57.383Z,60.65
2023-01-08T06:26:24.763Z,62.42
2023-01-08T06:28:52.179Z,56.22
2023-01-08T06:31:19.564Z,56.63
2023-01-08T06:33:47.073Z,54.58
2023-01-08T06:36:14.442Z,54.92
2023-01-08T06:38:42.010Z,53.78
2023-01-08T06:41:10.792Z,49.65
2023-01-08T06:43:39.504Z,52.78
2023-01-08T06:46:08.654Z,53.60
2023-01-08T06:48:36.582Z,50.28
2023-01-08T06:51:04.512Z,54.65
2023-01-08T06:53:32.083Z,48.20
2023-01-08T06:55:59.519Z,54.88
2023-01-08T06:58:27.471Z,52.53
2023-01-08T07:00:55.842Z,53.10
2023-01-08T07:03:23.299Z,53.17
2023-01-08T07:05:50.960Z,59.08
2023-01-08T07:08:19.456Z,50.45
2023-01-08T07:10:47.601Z,52.88
2023-01-08T07:13:14.989Z,48.33
2023-01-08T07:15:43.102Z,49.28
2023-01-08T07:18:11.694Z,46.55
2023-01-08T07:20:39.415Z,49.75
2023-01-08T07:23:08.300Z,46.90
2023-01-08T07:25:35.868Z,47.58
2023-01-08T07:28:03.339Z,48.72
2023-01-08T07:30:31.024Z,42.40
2023-01-08T07:33:00.148Z,42.22
2023-01-08T07:35:27.714Z,45.50
2023-01-08T07:37:55.107Z,44.45
2023-01-08T07:40:22.753Z,45.08
2023-01-08T07:42:50.144Z,44.85
2023-01-08T07:45:17.535Z,41.53
2023-01-08T07:47:44.860Z,40.78
2023-01-08T07:50:12.330Z,43.08
2023-01-08T07:52:39.724Z,42.50
2023-01-08T07:55:07.231Z,40.28
2023-01-08T07:57:34.594Z,70.57
2023-01-08T08:00:02.061Z,45.50
2023-01-08T08:02:29.560Z,42.15
2023-01-08T08:04:57.191Z,41.47
2023-01-08T08:07:24.554Z,46.50
2023-01-08T08:09:52.148Z,41.42
2023-01-08T08:12:19.512Z,40.42
2023-01-08T08:14:47.010Z,44.67
2023-01-08T08:17:14.424Z,38.40
2023-01-08T08:19:44.159Z,40.50
2023-01-08T08:22:11.768Z,41.35
2023-01-08T08:24:39.180Z,42.83
2023-01-08T08:27:06.674Z,43.53
2023-01-08T08:29:34.264Z,41.78
2023-01-08T08:32:02.458Z,39.83
2023-01-08T08:34:29.902Z,41.22
2023-01-08T08:36:57.455Z,38.72
2023-01-08T08:39:24.831Z,38.47
2023-01-08T08:41:53.824Z,40.97
2023-01-08T08:44:21.273Z,35.63
2023-01-08T08:46:48.811Z,43.85
2023-01-08T08:49:16.276Z,33.25
2023-01-08T08:51:43.787Z,37.10
2023-01-08T08:54:11.816Z,34.42
2023-01-08T08:56:39.328Z,33.50
2023-01-08T08:59:06.673Z,30.90
2023-01-08T09:01:34.189Z,31.33
2023-01-08T09:04:01.664Z,29.05
2023-01-08T09:06:29.209Z,28.30
2023-01-08T09:08:56.678Z,29.15
2023-01-08T09:11:24.175Z,29.35
2023-01-08T09:13:51.590Z,29.55
2023-01-08T09:16:19.055Z,27.50
2023-01-08T09:18:47.003Z,28.95
2023-01-08T09:21:14.541Z,28.08
2023-01-08T09:23:42.061Z,27.50
2023-01-08T09:26:09.891Z,27.13
2023-01-08T09:28:38.105Z,29.60
2023-01-08T09:31:05.778Z,27.35
2023-01-08T09:33:33.785Z,30.70
2023-01-08T09:36:01.204Z,34.40
2023-01-08T09:38:30.027Z,25.58
2023-01-08T09:40:59.243Z,27.27
2023-01-08T09:43:29.228Z,24.83
2023-01-08T09:45:59.071Z,29.15
2023-01-08T09:48:28.939Z,28.35
2023-01-08T09:50:56.973Z,26.92
2023-01-08T09:53:25.176Z,24.02
2023-01-08T09:56:10.014Z,22.60
2023-01-08T09:58:39.573Z,25.77
2023-01-08T10:01:08.169Z,24.63
2023-01-08T10:03:43.621Z,22.65
2023-01-08T10:06:11.970Z,20.73
2023-01-08T10:08:39.771Z,22.73
2023-01-08T10:11:07.729Z,27.60
2023-01-08T10:13:36.268Z,20.42
2023-01-08T10:16:07.323Z,24.75
2023-01-08T10:18:35.918Z,20.95
2023-01-08T10:21:03.557Z,23.75
2023-01-08T10:23:31.728Z,29.10
2023-01-08T10:26:02.780Z,20.95
2023-01-08T10:28:31.193Z,21.80
2023-01-08T10:31:07.353Z,23.52
2023-01-08T10:33:45.576Z,23.73
2023-01-08T10:36:18.298Z,21.73
2023-01-08T10:39:01.715Z,24.10
2023-01-08T10:41:29.776Z,24.75
2023-01-08T10:44:04.008Z,21.02
2023-01-08T10:46:31.424Z,22.58
2023-01-08T10:49:00.696Z,24.40
2023-01-08T10:51:29.868Z,23.67
2023-01-08T10:54:00.756Z,25.60
2023-01-08T10:56:32.345Z,24.05
2023-01-08T10:58:59.844Z,57.50
2023-01-08T11:01:29.033Z,25.95
2023-01-08T11:04:07.101Z,21.10
2023-01-08T11:06:37.879Z,26.02
2023-01-08T11:09:14.880Z,20.58
2023-01-08T11:11:42.423Z,39.72
2023-01-08T11:14:18.774Z,19.65
2023-01-08T11:16:47.113Z,20.60
2023-01-08T11:19:18.977Z,33.42
2023-01-08T11:21:56.693Z,24.20
2023-01-08T11:24:28.939Z,89.75
2023-01-08T11:27:15.099Z,86.38
2023-01-08T11:29:42.780Z,22.92
2023-01-08T11:32:26.669Z,105.50
2023-01-08T11:34:57.501Z,65.78
2023-01-08T11:37:26.731Z,114.80
2023-01-08T11:39:54.640Z,26.10
2023-01-08T11:42:30.940Z,22.27
2023-01-08T11:45:13.626Z,23.98
2023-01-08T11:47:41.024Z,22.45
2023-01-08T11:50:20.026Z,20.63
2023-01-08T11:52:47.521Z,21.60
2023-01-08T11:55:14.844Z,19.38
2023-01-08T11:57:45.199Z,18.08
2023-01-08T12:00:14.410Z,24.05
2023-01-08T12:03:02.625Z,18.20
2023-01-08T12:05:36.615Z,17.75
2023-01-08T12:08:06.443Z,16.73
2023-01-08T12:10:37.945Z,13.20
2023-01-08T12:13:14.566Z,16.70
2023-01-08T12:15:51.387Z,16.38
2023-01-08T12:18:33.829Z,14.57
2023-01-08T12:21:07.585Z,15.95
2023-01-08T12:23:34.969Z,12.98
2023-01-08T12:26:25.077Z,15.57
2023-01-08T12:28:53.065Z,13.25
2023-01-08T12:31:20.526Z,16.20
2023-01-08T12:33:56.492Z,14.27
2023-01-08T12:36:30.146Z,15.82
2023-01-08T12:39:29.815Z,16.45
2023-01-08T12:42:06.735Z,16.67
2023-01-08T12:44:34.273Z,15.20
2023-01-08T12:47:03.730Z,18.55
2023-01-08T12:49:38.519Z,16.67
2023-01-08T12:52:12.355Z,21.15
2023-01-08T12:54:39.808Z,19.63
2023-01-08T12:57:16.225Z,20.75
2023-01-08T12:59:48.202Z,26.67
2023-01-08T13:02:21.925Z,19.90
2023-01-08T13:04:49.649Z,25.67
2023-01-08T13:07:19.521Z,26.83
2023-01-08T13:09:47.067Z,29.10
2023-01-08T13:12:16.004Z,22.88
2023-01-08T13:14:44.846Z,22.98
2023-01-08T13:17:18.428Z,24.20
2023-01-08T13:19:51.808Z,29.42
2023-01-08T13:22:29.769Z,25.00
2023-01-08T13:25:15.670Z,23.42
2023-01-08T13:27:43.596Z,25.17
2023-01-08T13:30:30.849Z,32.50
2023-01-08T13:32:58.648Z,29.05
2023-01-08T13:35:35.181Z,22.75
2023-01-08T13:38:08.783Z,31.40
2023-01-08T13:40:46.079Z,20.38
2023-01-08T13:43:32.151Z,24.63
2023-01-08T13:46:02.463Z,36.10
2023-01-08T13:48:41.132Z,25.98
2023-01-08T13:51:25.874Z,34.42
2023-01-08T13:53:53.420Z,22.07
2023-01-08T13:56:22.163Z,32.90
2023-01-08T13:58:53.930Z,30.42
2023-01-08T14:01:23.559Z,31.35
2023-01-08T14:03:51.118Z,24.52
2023-01-08T14:06:20.621Z,27.20
2023-01-08T14:08:51.347Z,38.33
2023-01-08T14:11:19.286Z,39.67
2023-01-08T14:13:47.005Z,70.07
2023-01-08T14:16:15.779Z,84.18
2023-01-08T14:18:46.460Z,43.50
2023-01-08T14:21:14.925Z,38.03
2023-01-08T14:23:45.899Z,40.45
2023-01-08T14:26:20.894Z,44.17
2023-01-08T14:28:55.083Z,35.58
2023-01-08T14:31:23.921Z,35.08
2023-01-08T14:33:53.135Z,34.72
2023-01-08T14:36:21.406Z,31.55
2023-01-08T14:38:52.330Z,32.20
2023-01-08T14:41:45.806Z,39.65
2023-01-08T14:44:20.912Z,48.03
2023-01-08T14:46:50.697Z,48.30
2023-01-08T14:49:28.791Z,45.47
2023-01-08T14:51:57.652Z,48.13
2023-01-08T14:54:29.051Z,57.25
2023-01-08T14:56:59.108Z,59.45
2023-01-08T14:59:28.092Z,67.32
2023-01-08T15:01:56.367Z,91.47
2023-01-08T15:04:24.334Z,125.03
2023-01-08T15:06:52.697Z,94.47
2023-01-08T15:09:24.359Z,87.07
2023-01-08T15:11:57.003Z,80.70
2023-01-08T15:14:25.229Z,107.68
2023-01-08T15:16:55.216Z,147.38
2023-01-08T15:19:30.203Z,118.32
2023-01-08T15:22:00.170Z,87.60
2023-01-08T15:24:35.474Z,83.45
2023-01-08T15:29:47.505Z,81.40
2023-01-08T15:32:15.668Z,68.90
2023-01-08T15:34:43.560Z,81.97
2023-01-08T15:37:11.217Z,79.60
2023-01-08T15:39:38.737Z,88.90
2023-01-08T15:42:44.639Z,86.35
2023-01-08T15:45:17.042Z,89.78
2023-01-08T15:47:44.530Z,80.75
2023-01-08T15:50:12.157Z,87.40
2023-01-08T15:52:42.041Z,206.75
2023-01-08T15:55:15.438Z,121.90
2023-01-08T15:57:43.744Z,169.93
2023-01-08T16:00:12.965Z,110.50
2023-01-08T16:02:47.881Z,111.60
2023-01-08T16:05:17.519Z,104.47
2023-01-08T16:07:46.236Z,318.33
2023-01-08T16:10:14.287Z,117.35
2023-01-08T16:12:43.602Z,72.10
2023-01-08T16:15:11.967Z,76.68
2023-01-08T16:17:39.362Z,48.95
2023-01-08T16:20:07.431Z,55.10
2023-01-08T16:22:35.767Z,52.45
2023-01-08T16:25:03.367Z,48.97
2023-01-08T16:27:33.952Z,50.45
2023-01-08T16:30:01.475Z,49.15
2023-01-08T16:32:28.861Z,59.67
2023-01-08T16:34:56.401Z,57.15
2023-01-08T16:37:24.009Z,60.25
2023-01-08T16:39:51.455Z,57.97
2023-01-08T16:42:18.819Z,54.35
2023-01-08T16:44:46.490Z,46.40
2023-01-08T16:47:14.489Z,49.10
2023-01-08T16:49:41.934Z,51.13
2023-01-08T16:52:09.689Z,53.33
2023-01-08T16:54:37.297Z,56.63
2023-01-08T16:57:04.856Z,54.72
2023-01-08T16:59:33.118Z,53.58
2023-01-08T17:02:00.840Z,54.83
2023-01-08T17:04:30.067Z,46.42
2023-01-08T17:06:58.047Z,53.10
2023-01-08T17:09:26.132Z,50.53
2023-01-08T17:11:53.632Z,50.78
2023-01-08T17:14:21.179Z,48.70
2023-01-08T17:16:49.188Z,48.05
2023-01-08T17:19:17.708Z,46.45
2023-01-08T17:21:46.050Z,44.50
2023-01-08T17:24:13.489Z,43.45
2023-01-08T17:26:40.971Z,46.42
2023-01-08T17:29:08.481Z,49.55
2023-01-08T17:31:40.120Z,42.97
2023-01-08T17:34:08.632Z,48.70
2023-01-08T17:36:36.288Z,52.00
2023-01-08T17:39:04.547Z,48.13
2023-01-08T17:41:50.484Z,44.70
2023-01-08T17:44:18.650Z,56.00
2023-01-08T17:46:46.455Z,41.80
2023-01-08T17:49:15.080Z,46.05
2023-01-08T17:51:43.202Z,41.85
2023-01-08T17:54:11.915Z,44.30
2023-01-08T17:56:39.363Z,40.53
2023-01-08T17:59:07.212Z,44.17
2023-01-08T18:01:36.687Z,38.35
2023-01-08T18:04:04.230Z,43.08
2023-01-08T18:06:32.490Z,46.55
2023-01-08T18:09:00.334Z,41.25
2023-01-08T18:11:28.864Z,40.30
2023-01-08T18:13:59.697Z,43.03
2023-01-08T18:16:27.898Z,44.45
2023-01-08T18:18:57.440Z,44.83
2023-01-08T18:21:25.066Z,52.20
2023-01-08T18:23:52.477Z,59.35
2023-01-08T18:26:21.198Z,51.53
2023-01-08T18:28:48.857Z,49.20
2023-01-08T18:31:16.459Z,48.92
2023-01-08T18:33:44.174Z,51.03
2023-01-08T18:36:13.076Z,54.40
2023-01-08T18:38:41.360Z,48.13
2023-01-08T18:41:09.299Z,49.10
2023-01-08T18:43:36.984Z,50.63
2023-01-08T18:46:06.634Z,48.78
2023-01-08T18:48:34.999Z,48.67
2023-01-08T18:51:05.458Z,51.92
2023-01-08T18:53:33.708Z,53.15
2023-01-08T18:56:01.934Z,50.08
2023-01-08T18:58:29.395Z,50.35
2023-01-08T19:00:57.079Z,50.88
2023-01-08T19:03:24.558Z,51.70
2023-01-08T19:05:52.604Z,48.75
2023-01-08T19:08:20.003Z,51.00
2023-01-08T19:10:47.619Z,54.10
2023-01-08T19:13:15.084Z,51.25
2023-01-08T19:15:42.937Z,52.35
2023-01-08T19:18:10.464Z,49.22
2023-01-08T19:20:43.319Z,53.58
2023-01-08T19:23:10.857Z,50.53
2023-01-08T19:25:40.373Z,47.58
2023-01-08T19:28:07.853Z,50.05
2023-01-08T19:30:35.645Z,52.08
2023-01-08T19:33:03.615Z,50.20
2023-01-08T19:35:31.085Z,51.88
2023-01-08T19:37:58.526Z,48.00
2023-01-08T19:40:25.920Z,49.40
2023-01-08T19:43:12.152Z,55.75
2023-01-08T19:45:39.737Z,65.72
2023-01-08T19:48:07.401Z,55.92
2023-01-08T19:50:37.988Z,64.40
2023-01-08T19:53:05.500Z,62.97
2023-01-08T19:55:32.885Z,62.65
2023-01-08T19:58:00.376Z,63.10
2023-01-08T20:00:28.009Z,65.97
2023-01-08T20:02:55.398Z,65.72
2023-01-08T20:05:22.855Z,63.42
2023-01-08T20:07:52.545Z,57.08
2023-01-08T20:10:20.153Z,59.53
2023-01-08T20:12:47.642Z,62.20
2023-01-08T20:15:17.523Z,64.68
2023-01-08T20:17:44.979Z,67.47
2023-01-08T20:20:12.774Z,60.70
2023-01-08T20:22:41.280Z,55.33
2023-01-08T20:25:09.025Z,88.78
2023-01-08T20:27:37.517Z,63.17
2023-01-08T20:30:06.895Z,86.28
2023-01-08T20:32:34.492Z,99.70
2023-01-08T20:35:02.747Z,83.80
2023-01-08T20:37:30.230Z,82.00
2023-01-08T20:40:01.409Z,76.93
2023-01-08T20:42:34.113Z,93.43
2023-01-08T20:45:02.118Z,72.35
2023-01-08T20:47:32.528Z,103.05
2023-01-08T20:50:03.311Z,118.18
2023-01-08T20:52:41.582Z,61.20
2023-01-08T20:55:13.064Z,65.40
2023-01-08T20:57:40.623Z,84.63
2023-01-08T21:00:08.496Z,82.07
2023-01-08T21:02:35.916Z,85.25
2023-01-08T21:05:03.322Z,58.80
2023-01-08T21:07:32.501Z,71.05
2023-01-08T21:09:59.879Z,66.03
2023-01-08T21:12:27.262Z,69.22
2023-01-08T21:14:54.728Z,85.53
2023-01-08T21:17:22.163Z,79.40
2023-01-08T21:19:49.568Z,76.05
2023-01-08T21:22:16.911Z,75.60
2023-01-08T21:24:44.340Z,84.00
2023-01-08T21:27:11.755Z,96.32
2023-01-08T21:29:39.179Z,76.45
2023-01-08T21:32:07.805Z,91.07
2023-01-08T21:34:35.282Z,70.53
2023-01-08T21:37:04.223Z,82.43
2023-01-08T21:39:33.229Z,83.07
2023-01-08T21:42:19.310Z,93.63
2023-01-08T21:45:05.441Z,89.78
2023-01-08T21:47:33.538Z,73.90
2023-01-08T21:50:00.923Z,71.38
2023-01-08T21:52:46.883Z,83.72
2023-01-08T21:55:16.910Z,79.80
2023-01-08T21:57:45.142Z,72.15
2023-01-08T22:00:13.135Z,90.78
2023-01-08T22:02:40.495Z,67.82
2023-01-08T22:05:08.302Z,67.78
2023-01-08T22:07:35.843Z,61.65
2023-01-08T22:10:03.601Z,75.60
2023-01-08T22:12:31.226Z,81.38
2023-01-08T22:14:58.681Z,68.90
2023-01-08T22:17:27.060Z,68.15
2023-01-08T22:19:54.626Z,78.60
2023-01-08T22:22:22.109Z,80.32
2023-01-08T22:24:51.248Z,77.65
2023-01-08T22:27:18.639Z,98.93
2023-01-08T22:29:47.868Z,82.28
2023-01-08T22:32:15.303Z,60.03
2023-01-08T22:34:43.134Z,65.85
2023-01-08T22:37:10.571Z,74.90
2023-01-08T22:39:38.019Z,58.38
2023-01-08T22:42:05.485Z,63.58
2023-01-08T22:44:33.585Z,94.57
2023-01-08T22:47:02.646Z,69.00
2023-01-08T22:49:30.219Z,70.97
2023-01-08T22:51:58.805Z,73.13
2023-01-08T22:54:26.193Z,72.20
2023-01-08T22:56:53.588Z,65.93
2023-01-08T22:59:21.390Z,55.42
2023-01-08T23:01:49.312Z,60.58
2023-01-08T23:04:16.787Z,60.80
2023-01-08T23:06:44.346Z,65.22
2023-01-08T23:09:11.697Z,56.05
2023-01-08T23:11:39.248Z,63.00
2023-01-08T23:14:06.599Z,66.53
2023-01-08T23:16:34.036Z,68.40
2023-01-08T23:19:02.738Z,61.00
2023-01-08T23:21:30.195Z,68.78
2023-01-08T23:23:57.802Z,69.57
2023-01-08T23:26:27.046Z,71.68
2023-01-08T23:28:54.902Z,54.65
2023-01-08T23:31:24.040Z,75.28
2023-01-08T23:33:52.087Z,65.10
2023-01-08T23:36:21.171Z,69.07
2023-01-08T23:38:49.670Z,57.75
2023-01-08T23:41:17.041Z,74.50
2023-01-08T23:43:46.003Z,68.22
2023-01-08T23:46:13.898Z,75.20
2023-01-08T23:48:41.478Z,67.45
2023-01-08T23:51:08.894Z,67.78
2023-01-08T23:53:36.331Z,77.18
2023-01-08T23:56:03.966Z,60.60
2023-01-08T23:58:31.415Z,60.00
